createdAt,value
2023-01-09T00:01:27.961Z,53.94
2023-01-09T00:03:55.032Z,53.86
2023-01-09T00:06:22.019Z,53.70
2023-01-09T00:08:49.064Z,53.43
2023-01-09T00:13:58.048Z,53.22
2023-01-09T00:16:25.066Z,53.07
2023-01-09T00:18:53.495Z,53.02
2023-01-09T00:21:20.449Z,52.89
2023-01-09T00:23:47.880Z,52.78
2023-01-09T00:26:18.006Z,52.76
2023-01-09T00:28:48.870Z,52.67
2023-01-09T00:31:16.573Z,52.19
2023-01-09T00:33:59.512Z,52.28
2023-01-09T00:36:26.750Z,52.28
2023-01-09T00:38:53.703Z,52.33
2023-01-09T00:41:30.316Z,52.08
2023-01-09T00:43:58.923Z,52.14
2023-01-09T00:46:31.937Z,51.94
2023-01-09T00:48:58.882Z,51.81
2023-01-09T00:51:25.915Z,51.68
2023-01-09T00:53:52.868Z,51.36
2023-01-09T00:56:20.229Z,51.44
2023-01-09T00:58:47.183Z,51.43
2023-01-09T01:01:14.249Z,51.43
2023-01-09T01:03:41.419Z,51.42
2023-01-09T01:06:27.057Z,51.23
2023-01-09T01:08:55.977Z,51.21
2023-01-09T01:11:23.062Z,51.23
2023-01-09T01:13:50.185Z,51.13
2023-01-09T01:16:18.651Z,51.05
2023-01-09T01:18:45.722Z,51.10
2023-01-09T01:21:13.507Z,50.37
2023-01-09T01:23:40.463Z,49.52
2023-01-09T01:26:09.160Z,49.35
2023-01-09T01:28:36.281Z,49.06
2023-01-09T01:31:03.426Z,48.95
2023-01-09T01:33:30.539Z,49.56
2023-01-09T01:36:17.740Z,50.12
2023-01-09T01:38:44.832Z,50.30
2023-01-09T01:41:11.921Z,50.42
2023-01-09T01:43:53.234Z,49.51
2023-01-09T01:46:20.258Z,48.97
2023-01-09T01:48:48.607Z,48.64
2023-01-09T01:51:17.087Z,48.50
2023-01-09T01:53:46.688Z,48.30
2023-01-09T01:56:24.788Z,47.96
2023-01-09T01:59:22.902Z,48.24
2023-01-09T02:01:51.815Z,49.20
2023-01-09T02:04:18.926Z,49.07
2023-01-09T02:06:47.397Z,48.57
2023-01-09T02:09:15.465Z,48.49
2023-01-09T02:11:46.441Z,48.50
2023-01-09T02:14:13.896Z,49.16
2023-01-09T02:16:40.917Z,49.22
2023-01-09T02:19:45.731Z,49.46
2023-01-09T02:22:51.079Z,49.02
2023-01-09T02:25:45.982Z,49.33
2023-01-09T02:28:50.782Z,49.75
2023-01-09T02:31:22.407Z,49.85
2023-01-09T02:34:00.148Z,50.17
2023-01-09T02:36:49.105Z,50.16
2023-01-09T02:39:33.624Z,50.77
2023-01-09T02:42:06.903Z,50.96
2023-01-09T02:44:38.288Z,51.51
2023-01-09T02:47:24.022Z,51.42
2023-01-09T02:49:54.236Z,51.63
2023-01-09T02:52:38.031Z,51.92
2023-01-09T02:55:42.925Z,52.29
2023-01-09T02:58:40.002Z,52.68
2023-01-09T03:01:16.210Z,52.99
2023-01-09T03:03:57.881Z,52.72
2023-01-09T03:06:28.202Z,51.96
2023-01-09T03:08:56.645Z,51.82
2023-01-09T03:11:23.621Z,51.83
2023-01-09T03:14:06.093Z,51.77
2023-01-09T03:16:35.752Z,51.62
2023-01-09T03:19:04.394Z,51.68
2023-01-09T03:21:31.342Z,52.00
2023-01-09T03:23:59.830Z,52.14
2023-01-09T03:26:26.961Z,52.39
2023-01-09T03:28:53.919Z,52.76
2023-01-09T03:31:20.958Z,53.13
2023-01-09T03:33:48.318Z,53.20
2023-01-09T03:36:16.538Z,53.51
2023-01-09T03:38:43.635Z,54.61
2023-01-09T03:41:10.598Z,55.58
2023-01-09T03:43:37.707Z,55.25
2023-01-09T03:46:05.745Z,55.05
2023-01-09T03:48:32.750Z,55.21
2023-01-09T03:50:59.803Z,55.48
2023-01-09T03:53:27.859Z,55.85
2023-01-09T03:55:56.340Z,55.89
2023-01-09T03:58:23.767Z,56.09
2023-01-09T04:00:51.194Z,56.39
2023-01-09T04:03:20.371Z,56.78
2023-01-09T04:05:48.254Z,56.79
2023-01-09T04:08:15.477Z,56.89
2023-01-09T04:10:48.409Z,57.17
2023-01-09T04:13:15.476Z,57.38
2023-01-09T04:15:42.453Z,57.82
2023-01-09T04:18:09.465Z,58.60
2023-01-09T04:20:36.465Z,58.98
2023-01-09T04:23:03.414Z,59.32
2023-01-09T04:25:30.482Z,59.56
2023-01-09T04:27:57.552Z,59.75
2023-01-09T04:30:24.693Z,60.01
2023-01-09T06:07:23.802Z,70.47
2023-01-09T06:09:50.812Z,67.12
2023-01-09T06:12:17.753Z,65.74
2023-01-09T06:14:44.654Z,64.92
2023-01-09T06:17:12.031Z,64.35
2023-01-09T06:19:38.955Z,64.07
2023-01-09T06:22:05.881Z,63.71
2023-01-09T06:24:32.811Z,63.28
2023-01-09T06:26:59.744Z,62.88
2023-01-09T06:29:26.709Z,62.64
2023-01-09T06:31:53.712Z,62.60
2023-01-09T06:34:20.625Z,62.22
2023-01-09T06:36:47.615Z,62.07
2023-01-09T06:39:14.636Z,62.03
2023-01-09T06:41:41.768Z,61.78
2023-01-09T06:44:08.787Z,61.88
2023-01-09T06:46:35.695Z,61.67
2023-01-09T06:49:02.613Z,61.50
2023-01-09T06:51:29.533Z,61.55
2023-01-09T06:53:56.428Z,61.44
2023-01-09T06:56:23.394Z,61.37
2023-01-09T06:58:50.423Z,61.27
2023-01-09T07:01:17.490Z,61.14
2023-01-09T07:03:45.223Z,61.18
2023-01-09T07:06:12.170Z,60.90
2023-01-09T07:08:39.195Z,60.92
2023-01-09T07:11:06.129Z,60.95
2023-01-09T07:13:33.057Z,60.75
2023-01-09T07:16:00.108Z,60.85
2023-01-09T07:18:27.117Z,60.76
2023-01-09T07:20:54.077Z,60.69
2023-01-09T07:23:21.041Z,60.80
2023-01-09T07:25:48.265Z,60.80
2023-01-09T07:28:15.206Z,60.76
2023-01-09T07:30:42.141Z,60.78
2023-01-09T07:33:09.103Z,60.75
2023-01-09T07:35:36.102Z,60.78
2023-01-09T07:38:02.992Z,60.78
2023-01-09T07:40:30.045Z,60.76
2023-01-09T07:42:57.046Z,61.06
2023-01-09T07:45:23.954Z,61.26
2023-01-09T07:47:52.500Z,61.22
2023-01-09T07:50:19.905Z,61.22
2023-01-09T07:52:46.932Z,61.41
2023-01-09T07:55:16.094Z,61.35
2023-01-09T07:57:47.810Z,61.33
2023-01-09T08:00:15.065Z,61.36
2023-01-09T08:02:42.077Z,61.39
2023-01-09T08:05:13.771Z,61.47
2023-01-09T08:07:41.234Z,61.61
2023-01-09T08:10:10.686Z,61.47
2023-01-09T08:12:37.691Z,61.60
2023-01-09T08:15:05.059Z,61.86
2023-01-09T08:17:32.506Z,61.92
2023-01-09T08:19:59.426Z,61.82
2023-01-09T08:22:26.369Z,61.75
2023-01-09T08:24:53.275Z,61.79
2023-01-09T08:27:20.198Z,61.74
2023-01-09T08:29:47.103Z,61.72
2023-01-09T08:32:14.056Z,61.81
2023-01-09T08:34:41.036Z,61.69
2023-01-09T08:37:08.005Z,61.59
2023-01-09T08:39:36.202Z,61.41
2023-01-09T08:42:21.833Z,61.89
2023-01-09T08:45:07.527Z,62.82
2023-01-09T08:47:34.552Z,63.40
2023-01-09T08:50:01.570Z,63.62
2023-01-09T08:52:30.949Z,63.64
2023-01-09T08:54:57.873Z,63.75
2023-01-09T08:57:24.974Z,63.88
2023-01-09T08:59:54.290Z,63.88
2023-01-09T09:02:21.264Z,63.92
2023-01-09T09:04:51.903Z,63.94
2023-01-09T09:07:26.907Z,63.96
2023-01-09T09:09:54.620Z,63.97
2023-01-09T09:12:21.987Z,63.91
2023-01-09T09:15:07.733Z,64.09
2023-01-09T09:17:34.750Z,64.02
2023-01-09T09:20:01.672Z,63.89
2023-01-09T09:22:28.578Z,63.98
2023-01-09T09:24:55.543Z,63.99
2023-01-09T09:27:22.495Z,63.75
2023-01-09T09:29:49.411Z,63.88
2023-01-09T09:32:16.374Z,63.95
2023-01-09T09:34:43.270Z,63.97
2023-01-09T09:37:10.282Z,64.24
2023-01-09T09:39:37.367Z,64.17
2023-01-09T09:42:52.103Z,64.31
2023-01-09T09:45:37.297Z,64.47
2023-01-09T09:48:43.411Z,64.40
2023-01-09T09:51:35.364Z,64.85
2023-01-09T09:54:12.287Z,65.09
2023-01-09T09:56:51.878Z,65.27
2023-01-09T09:59:20.472Z,65.49
2023-01-09T10:02:05.070Z,65.60
2023-01-09T10:04:32.970Z,65.58
2023-01-09T10:07:06.770Z,65.59
2023-01-09T10:09:36.724Z,65.81
2023-01-09T10:12:27.728Z,65.73
2023-01-09T10:15:09.924Z,65.92
2023-01-09T10:17:36.875Z,66.03
2023-01-09T10:20:34.189Z,66.14
2023-01-09T10:23:07.577Z,66.30
2023-01-09T10:26:05.397Z,66.28
2023-01-09T10:28:46.573Z,66.39
2023-01-09T10:31:52.944Z,66.36
2023-01-09T10:34:36.889Z,66.45
2023-01-09T10:37:11.873Z,66.57
2023-01-09T10:39:52.702Z,66.42
2023-01-09T10:42:37.507Z,66.53
2023-01-09T10:45:12.891Z,66.69
2023-01-09T10:47:39.891Z,66.71
2023-01-09T10:50:22.832Z,66.73
2023-01-09T10:52:54.761Z,66.84
2023-01-09T10:55:54.263Z,66.61
2023-01-09T10:58:22.083Z,66.61
2023-01-09T11:00:50.071Z,66.65
2023-01-09T11:03:19.510Z,66.86
2023-01-09T11:05:54.226Z,67.05
2023-01-09T11:08:29.567Z,67.09
2023-01-09T11:11:00.698Z,67.30
2023-01-09T11:13:33.315Z,67.25
2023-01-09T11:16:22.764Z,67.19
2023-01-09T11:18:50.308Z,67.34
2023-01-09T11:21:33.550Z,67.27
2023-01-09T11:24:19.029Z,67.37
2023-01-09T11:26:46.716Z,67.26
2023-01-09T11:29:18.992Z,67.56
2023-01-09T11:31:59.672Z,67.48
2023-01-09T11:34:31.936Z,67.57
2023-01-09T11:37:09.963Z,67.48
2023-01-09T11:39:41.502Z,67.49
2023-01-09T11:42:18.771Z,67.62
2023-01-09T18:22:51.873Z,65.18
2023-01-09T18:25:19.024Z,62.56
2023-01-09T18:27:46.919Z,62.27
2023-01-09T18:30:14.365Z,61.89
2023-01-09T18:32:41.539Z,61.57
2023-01-09T18:35:09.492Z,61.43
2023-01-09T18:37:37.294Z,61.22
2023-01-09T18:40:05.226Z,60.79
2023-01-09T18:42:32.360Z,60.42
2023-01-09T18:44:59.411Z,60.14
2023-01-09T18:47:26.463Z,59.81
2023-01-09T18:49:53.560Z,59.41
2023-01-09T18:52:20.681Z,59.15
2023-01-09T18:54:47.665Z,58.89
2023-01-09T18:57:14.864Z,58.70
2023-01-09T18:59:41.916Z,58.55
2023-01-09T19:02:24.324Z,58.73
2023-01-09T19:04:51.374Z,59.01
2023-01-09T19:07:18.427Z,58.96
2023-01-09T19:09:45.586Z,59.07
2023-01-09T19:12:12.625Z,58.80
2023-01-09T19:14:39.692Z,58.78
2023-01-09T19:17:06.724Z,59.03
2023-01-09T19:19:34.296Z,59.08
2023-01-09T19:22:01.441Z,58.91
2023-01-09T19:24:28.693Z,58.77
2023-01-09T19:26:55.745Z,58.79
2023-01-09T19:29:22.799Z,58.51
2023-01-09T19:31:52.485Z,58.41
2023-01-09T19:34:21.110Z,58.54
2023-01-09T19:36:48.173Z,58.26
2023-01-09T19:39:15.728Z,58.28
2023-01-09T19:41:42.964Z,57.91
2023-01-09T19:44:11.131Z,57.90
2023-01-09T19:46:38.333Z,57.91
2023-01-09T19:49:06.373Z,57.81
2023-01-09T19:51:35.948Z,57.38
2023-01-09T19:56:32.229Z,57.52
2023-01-09T19:59:00.610Z,57.38
2023-01-09T20:01:41.998Z,57.16
2023-01-09T20:04:13.917Z,57.09
2023-01-09T20:06:43.926Z,56.62
2023-01-09T22:39:58.390Z,54.24
2023-01-09T22:42:25.432Z,52.62
2023-01-09T22:44:52.510Z,52.33
2023-01-09T22:47:19.513Z,52.22
2023-01-09T22:49:52.745Z,51.95
2023-01-09T22:52:20.678Z,51.55
2023-01-09T22:54:48.300Z,51.36
2023-01-09T22:57:15.317Z,51.23
2023-01-09T22:59:42.419Z,50.95
2023-01-09T23:02:09.453Z,50.90
2023-01-09T23:04:36.431Z,50.61
2023-01-09T23:07:03.426Z,50.64
2023-01-09T23:09:30.372Z,50.69
2023-01-09T23:12:03.499Z,50.60
2023-01-09T23:14:31.905Z,50.56
2023-01-09T23:16:58.974Z,50.54
2023-01-09T23:19:25.931Z,50.39
2023-01-09T23:21:52.986Z,50.53
2023-01-09T23:24:19.956Z,50.53
2023-01-09T23:26:47.824Z,50.32
2023-01-09T23:29:14.969Z,50.30
2023-01-09T23:31:42.069Z,50.39
2023-01-09T23:34:09.271Z,50.14
2023-01-09T23:36:36.318Z,49.99
2023-01-09T23:39:04.429Z,50.09
2023-01-09T23:41:50.138Z,49.95
2023-01-09T23:44:17.222Z,49.62
2023-01-09T23:46:44.149Z,49.67
2023-01-09T23:49:11.103Z,49.76
2023-01-09T23:51:38.043Z,49.60
2023-01-09T23:54:05.130Z,49.69
2023-01-09T23:56:34.057Z,49.75
2023-01-09T23:59:02.145Z,49.63
